sensor_id;sensor_type;location;lat;lon;timestamp;P1;durP1;ratioP1;P2;durP2;ratioP2
44440;SDS011;30146;52.268;20.944;2023-09-07T00:00:35;10.90;;;7.70;;
44440;SDS011;30146;52.268;20.944;2023-09-07T00:03:06;14.70;;;8.40;;
44440;SDS011;30146;52.268;20.944;2023-09-07T00:05:38;12.90;;;8.20;;
44440;SDS011;30146;52.268;20.944;2023-09-07T00:08:09;13.30;;;7.50;;
44440;SDS011;30146;52.268;20.944;2023-09-07T00:10:40;14.00;;;8.00;;
44440;SDS011;30146;52.268;20.944;2023-09-07T00:13:11;13.10;;;8.10;;
44440;SDS011;30146;52.268;20.944;2023-09-07T00:15:42;13.20;;;7.90;;
44440;SDS011;30146;52.268;20.944;2023-09-07T00:18:13;16.50;;;7.50;;
44440;SDS011;30146;52.268;20.944;2023-09-07T00:20:47;14.30;;;8.00;;
44440;SDS011;30146;52.268;20.944;2023-09-07T00:23:18;15.30;;;7.50;;
44440;SDS011;30146;52.268;20.944;2023-09-07T00:25:49;14.30;;;7.70;;
44440;SDS011;30146;52.268;20.944;2023-09-07T00:28:21;12.40;;;7.60;;
44440;SDS011;30146;52.268;20.944;2023-09-07T00:30:54;12.10;;;6.70;;
44440;SDS011;30146;52.268;20.944;2023-09-07T00:33:25;10.70;;;8.20;;
44440;SDS011;30146;52.268;20.944;2023-09-07T00:35:58;14.10;;;8.20;;
44440;SDS011;30146;52.268;20.944;2023-09-07T00:38:30;9.40;;;7.00;;
44440;SDS011;30146;52.268;20.944;2023-09-07T00:41:02;12.70;;;7.00;;
44440;SDS011;30146;52.268;20.944;2023-09-07T00:43:34;9.60;;;6.90;;
44440;SDS011;30146;52.268;20.944;2023-09-07T00:46:05;14.90;;;7.70;;
44440;SDS011;30146;52.268;20.944;2023-09-07T00:48:40;12.60;;;7.80;;
44440;SDS011;30146;52.268;20.944;2023-09-07T00:51:12;11.40;;;7.50;;
44440;SDS011;30146;52.268;20.944;2023-09-07T00:53:44;11.40;;;6.80;;
44440;SDS011;30146;52.268;20.944;2023-09-07T00:56:16;12.60;;;7.30;;
44440;SDS011;30146;52.268;20.944;2023-09-07T00:58:47;12.70;;;7.70;;
44440;SDS011;30146;52.268;20.944;2023-09-07T01:01:21;10.60;;;6.90;;
44440;SDS011;30146;52.268;20.944;2023-09-07T01:03:53;14.40;;;7.20;;
44440;SDS011;30146;52.268;20.944;2023-09-07T01:06:29;14.30;;;7.60;;
44440;SDS011;30146;52.268;20.944;2023-09-07T01:09:06;21.50;;;7.30;;
44440;SDS011;30146;52.268;20.944;2023-09-07T01:11:45;12.50;;;6.50;;
44440;SDS011;30146;52.268;20.944;2023-09-07T01:14:17;15.50;;;7.20;;
44440;SDS011;30146;52.268;20.944;2023-09-07T01:16:48;12.50;;;7.80;;
44440;SDS011;30146;52.268;20.944;2023-09-07T01:19:20;11.40;;;7.10;;
44440;SDS011;30146;52.268;20.944;2023-09-07T01:21:51;18.80;;;6.70;;
44440;SDS011;30146;52.268;20.944;2023-09-07T01:24:22;14.50;;;6.80;;
44440;SDS011;30146;52.268;20.944;2023-09-07T01:26:55;11.70;;;7.10;;
44440;SDS011;30146;52.268;20.944;2023-09-07T01:29:27;10.20;;;6.20;;
44440;SDS011;30146;52.268;20.944;2023-09-07T01:31:58;16.50;;;7.10;;
44440;SDS011;30146;52.268;20.944;2023-09-07T01:34:30;11.10;;;7.60;;
44440;SDS011;30146;52.268;20.944;2023-09-07T01:37:05;15.70;;;7.60;;
44440;SDS011;30146;52.268;20.944;2023-09-07T01:39:37;12.00;;;7.40;;
44440;SDS011;30146;52.268;20.944;2023-09-07T01:42:08;22.70;;;7.20;;
44440;SDS011;30146;52.268;20.944;2023-09-07T01:44:39;10.00;;;7.20;;
44440;SDS011;30146;52.268;20.944;2023-09-07T01:47:12;14.20;;;7.90;;
44440;SDS011;30146;52.268;20.944;2023-09-07T01:49:44;9.60;;;7.10;;
44440;SDS011;30146;52.268;20.944;2023-09-07T01:52:15;14.80;;;8.30;;
44440;SDS011;30146;52.268;20.944;2023-09-07T01:54:46;9.80;;;7.20;;
44440;SDS011;30146;52.268;20.944;2023-09-07T01:57:17;19.40;;;8.70;;
44440;SDS011;30146;52.268;20.944;2023-09-07T01:59:48;13.60;;;8.30;;
44440;SDS011;30146;52.268;20.944;2023-09-07T02:02:19;15.60;;;7.90;;
44440;SDS011;30146;52.268;20.944;2023-09-07T02:04:50;10.00;;;7.00;;
44440;SDS011;30146;52.268;20.944;2023-09-07T02:07:23;13.80;;;6.70;;
44440;SDS011;30146;52.268;20.944;2023-09-07T02:09:54;10.90;;;7.50;;
44440;SDS011;30146;52.268;20.944;2023-09-07T02:12:25;10.60;;;7.00;;
44440;SDS011;30146;52.268;20.944;2023-09-07T02:14:56;12.10;;;7.70;;
44440;SDS011;30146;52.268;20.944;2023-09-07T02:17:33;12.90;;;7.10;;
44440;SDS011;30146;52.268;20.944;2023-09-07T02:20:05;14.20;;;8.20;;
44440;SDS011;30146;52.268;20.944;2023-09-07T02:22:39;10.50;;;7.30;;
44440;SDS011;30146;52.268;20.944;2023-09-07T02:25:10;10.30;;;7.40;;
44440;SDS011;30146;52.268;20.944;2023-09-07T02:27:41;10.60;;;8.10;;
44440;SDS011;30146;52.268;20.944;2023-09-07T02:30:12;9.80;;;7.80;;
44440;SDS011;30146;52.268;20.944;2023-09-07T02:32:44;12.20;;;8.00;;
44440;SDS011;30146;52.268;20.944;2023-09-07T02:35:16;12.10;;;7.80;;
44440;SDS011;30146;52.268;20.944;2023-09-07T02:37:47;13.80;;;7.50;;
44440;SDS011;30146;52.268;20.944;2023-09-07T02:40:18;11.40;;;7.60;;
44440;SDS011;30146;52.268;20.944;2023-09-07T02:42:50;18.00;;;8.10;;
44440;SDS011;30146;52.268;20.944;2023-09-07T02:45:22;9.90;;;7.30;;
44440;SDS011;30146;52.268;20.944;2023-09-07T02:47:53;12.30;;;7.50;;
44440;SDS011;30146;52.268;20.944;2023-09-07T02:50:25;12.40;;;7.60;;
44440;SDS011;30146;52.268;20.944;2023-09-07T02:52:57;13.30;;;8.50;;
44440;SDS011;30146;52.268;20.944;2023-09-07T02:55:29;14.00;;;9.50;;
44440;SDS011;30146;52.268;20.944;2023-09-07T02:58:02;13.70;;;8.70;;
44440;SDS011;30146;52.268;20.944;2023-09-07T03:00:33;11.10;;;9.40;;
44440;SDS011;30146;52.268;20.944;2023-09-07T03:03:10;16.30;;;8.80;;
44440;SDS011;30146;52.268;20.944;2023-09-07T03:05:42;13.10;;;8.70;;
44440;SDS011;30146;52.268;20.944;2023-09-07T03:08:15;17.60;;;9.10;;
44440;SDS011;30146;52.268;20.944;2023-09-07T03:10:46;12.10;;;8.90;;
44440;SDS011;30146;52.268;20.944;2023-09-07T03:13:17;12.20;;;8.60;;
44440;SDS011;30146;52.268;20.944;2023-09-07T03:15:52;15.50;;;9.60;;
44440;SDS011;30146;52.268;20.944;2023-09-07T03:18:24;14.30;;;8.80;;
44440;SDS011;30146;52.268;20.944;2023-09-07T03:20:55;16.10;;;9.50;;
44440;SDS011;30146;52.268;20.944;2023-09-07T03:23:30;16.60;;;9.70;;
44440;SDS011;30146;52.268;20.944;2023-09-07T03:26:04;12.60;;;9.10;;
44440;SDS011;30146;52.268;20.944;2023-09-07T03:28:35;13.60;;;9.60;;
44440;SDS011;30146;52.268;20.944;2023-09-07T03:31:08;13.30;;;10.00;;
44440;SDS011;30146;52.268;20.944;2023-09-07T03:33:39;14.10;;;9.40;;
44440;SDS011;30146;52.268;20.944;2023-09-07T03:36:11;16.00;;;9.70;;
44440;SDS011;30146;52.268;20.944;2023-09-07T03:38:43;19.10;;;8.80;;
44440;SDS011;30146;52.268;20.944;2023-09-07T03:41:14;13.10;;;8.90;;
44440;SDS011;30146;52.268;20.944;2023-09-07T03:43:45;13.30;;;8.60;;
44440;SDS011;30146;52.268;20.944;2023-09-07T03:46:17;12.40;;;8.70;;
44440;SDS011;30146;52.268;20.944;2023-09-07T03:48:48;17.00;;;10.00;;
44440;SDS011;30146;52.268;20.944;2023-09-07T03:51:19;12.40;;;8.80;;
44440;SDS011;30146;52.268;20.944;2023-09-07T03:53:53;11.90;;;8.10;;
44440;SDS011;30146;52.268;20.944;2023-09-07T03:56:24;16.10;;;9.50;;
44440;SDS011;30146;52.268;20.944;2023-09-07T03:58:55;18.30;;;8.30;;
44440;SDS011;30146;52.268;20.944;2023-09-07T04:01:26;15.70;;;9.50;;
44440;SDS011;30146;52.268;20.944;2023-09-07T04:03:59;17.90;;;9.80;;
44440;SDS011;30146;52.268;20.944;2023-09-07T04:06:31;17.90;;;9.90;;
44440;SDS011;30146;52.268;20.944;2023-09-07T04:09:02;11.60;;;9.30;;
44440;SDS011;30146;52.268;20.944;2023-09-07T04:11:33;14.60;;;10.20;;
44440;SDS011;30146;52.268;20.944;2023-09-07T04:14:07;13.10;;;10.30;;
44440;SDS011;30146;52.268;20.944;2023-09-07T04:16:38;15.60;;;10.70;;
44440;SDS011;30146;52.268;20.944;2023-09-07T04:19:12;14.50;;;10.50;;
44440;SDS011;30146;52.268;20.944;2023-09-07T04:21:46;16.40;;;12.00;;
44440;SDS011;30146;52.268;20.944;2023-09-07T04:24:17;14.60;;;10.30;;
44440;SDS011;30146;52.268;20.944;2023-09-07T04:26:48;17.40;;;10.50;;
44440;SDS011;30146;52.268;20.944;2023-09-07T04:29:19;18.30;;;12.70;;
44440;SDS011;30146;52.268;20.944;2023-09-07T04:31:50;22.80;;;12.80;;
44440;SDS011;30146;52.268;20.944;2023-09-07T04:34:23;15.10;;;11.30;;
44440;SDS011;30146;52.268;20.944;2023-09-07T04:36:55;19.30;;;12.50;;
44440;SDS011;30146;52.268;20.944;2023-09-07T04:39:26;15.60;;;11.30;;
44440;SDS011;30146;52.268;20.944;2023-09-07T04:41:57;20.20;;;12.40;;
44440;SDS011;30146;52.268;20.944;2023-09-07T04:44:28;15.50;;;12.80;;
44440;SDS011;30146;52.268;20.944;2023-09-07T04:46:59;18.00;;;12.20;;
44440;SDS011;30146;52.268;20.944;2023-09-07T04:49:30;18.10;;;11.60;;
44440;SDS011;30146;52.268;20.944;2023-09-07T04:52:02;17.50;;;12.10;;
44440;SDS011;30146;52.268;20.944;2023-09-07T04:54:33;15.40;;;10.50;;
44440;SDS011;30146;52.268;20.944;2023-09-07T04:57:05;15.40;;;10.90;;
44440;SDS011;30146;52.268;20.944;2023-09-07T04:59:37;20.80;;;12.00;;
44440;SDS011;30146;52.268;20.944;2023-09-07T05:02:08;16.70;;;11.10;;
44440;SDS011;30146;52.268;20.944;2023-09-07T05:04:40;19.30;;;11.70;;
44440;SDS011;30146;52.268;20.944;2023-09-07T05:07:11;20.00;;;11.10;;
44440;SDS011;30146;52.268;20.944;2023-09-07T05:09:42;18.30;;;11.10;;
44440;SDS011;30146;52.268;20.944;2023-09-07T05:12:14;16.80;;;10.50;;
44440;SDS011;30146;52.268;20.944;2023-09-07T05:14:47;18.70;;;10.70;;
44440;SDS011;30146;52.268;20.944;2023-09-07T05:17:18;32.40;;;12.10;;
44440;SDS011;30146;52.268;20.944;2023-09-07T05:19:49;24.60;;;11.40;;
44440;SDS011;30146;52.268;20.944;2023-09-07T05:22:22;20.30;;;10.40;;
44440;SDS011;30146;52.268;20.944;2023-09-07T05:24:55;31.40;;;12.00;;
44440;SDS011;30146;52.268;20.944;2023-09-07T05:27:29;23.50;;;10.80;;
44440;SDS011;30146;52.268;20.944;2023-09-07T05:30:01;18.00;;;10.90;;
44440;SDS011;30146;52.268;20.944;2023-09-07T05:32:36;20.90;;;11.00;;
44440;SDS011;30146;52.268;20.944;2023-09-07T05:35:08;23.20;;;11.70;;
44440;SDS011;30146;52.268;20.944;2023-09-07T05:37:40;18.60;;;10.80;;
44440;SDS011;30146;52.268;20.944;2023-09-07T05:40:11;21.80;;;10.70;;
44440;SDS011;30146;52.268;20.944;2023-09-07T05:42:44;24.40;;;12.00;;
44440;SDS011;30146;52.268;20.944;2023-09-07T05:45:17;26.40;;;11.00;;
44440;SDS011;30146;52.268;20.944;2023-09-07T05:47:49;24.10;;;11.20;;
44440;SDS011;30146;52.268;20.944;2023-09-07T05:50:24;22.80;;;10.30;;
44440;SDS011;30146;52.268;20.944;2023-09-07T05:52:56;19.40;;;10.20;;
44440;SDS011;30146;52.268;20.944;2023-09-07T05:55:27;31.30;;;11.60;;
44440;SDS011;30146;52.268;20.944;2023-09-07T05:58:03;36.60;;;11.30;;
44440;SDS011;30146;52.268;20.944;2023-09-07T06:00:39;19.30;;;11.30;;
44440;SDS011;30146;52.268;20.944;2023-09-07T06:03:10;19.40;;;11.10;;
44440;SDS011;30146;52.268;20.944;2023-09-07T06:05:42;25.40;;;12.70;;
44440;SDS011;30146;52.268;20.944;2023-09-07T06:08:13;28.20;;;11.90;;
44440;SDS011;30146;52.268;20.944;2023-09-07T06:10:44;22.80;;;11.20;;
44440;SDS011;30146;52.268;20.944;2023-09-07T06:13:17;32.70;;;11.20;;
44440;SDS011;30146;52.268;20.944;2023-09-07T06:18:20;23.10;;;11.90;;
44440;SDS011;30146;52.268;20.944;2023-09-07T06:20:51;24.20;;;12.20;;
44440;SDS011;30146;52.268;20.944;2023-09-07T06:23:23;20.70;;;10.70;;
44440;SDS011;30146;52.268;20.944;2023-09-07T06:25:55;24.90;;;10.40;;
44440;SDS011;30146;52.268;20.944;2023-09-07T06:28:27;24.80;;;11.50;;
44440;SDS011;30146;52.268;20.944;2023-09-07T06:31:02;19.90;;;10.00;;
44440;SDS011;30146;52.268;20.944;2023-09-07T06:33:34;25.10;;;10.30;;
44440;SDS011;30146;52.268;20.944;2023-09-07T06:36:05;22.30;;;10.60;;
44440;SDS011;30146;52.268;20.944;2023-09-07T06:38:37;25.00;;;11.10;;
44440;SDS011;30146;52.268;20.944;2023-09-07T06:41:09;22.60;;;10.20;;
44440;SDS011;30146;52.268;20.944;2023-09-07T06:43:41;19.20;;;10.60;;
44440;SDS011;30146;52.268;20.944;2023-09-07T06:46:12;19.70;;;10.50;;
44440;SDS011;30146;52.268;20.944;2023-09-07T06:48:43;25.50;;;10.80;;
44440;SDS011;30146;52.268;20.944;2023-09-07T06:51:14;29.40;;;11.20;;
44440;SDS011;30146;52.268;20.944;2023-09-07T06:53:47;21.10;;;9.70;;
44440;SDS011;30146;52.268;20.944;2023-09-07T06:56:25;18.80;;;9.20;;
44440;SDS011;30146;52.268;20.944;2023-09-07T06:58:59;16.80;;;10.00;;
44440;SDS011;30146;52.268;20.944;2023-09-07T07:01:32;20.30;;;10.40;;
44440;SDS011;30146;52.268;20.944;2023-09-07T07:04:05;24.60;;;9.60;;
44440;SDS011;30146;52.268;20.944;2023-09-07T07:06:38;20.70;;;9.50;;
44440;SDS011;30146;52.268;20.944;2023-09-07T07:09:09;21.90;;;11.10;;
44440;SDS011;30146;52.268;20.944;2023-09-07T07:11:41;23.20;;;10.00;;
44440;SDS011;30146;52.268;20.944;2023-09-07T07:14:13;30.30;;;10.20;;
44440;SDS011;30146;52.268;20.944;2023-09-07T07:16:45;22.90;;;9.90;;
44440;SDS011;30146;52.268;20.944;2023-09-07T07:19:17;27.20;;;10.20;;
44440;SDS011;30146;52.268;20.944;2023-09-07T07:21:48;19.10;;;9.20;;
44440;SDS011;30146;52.268;20.944;2023-09-07T07:24:19;31.40;;;11.10;;
44440;SDS011;30146;52.268;20.944;2023-09-07T07:26:50;21.40;;;9.10;;
44440;SDS011;30146;52.268;20.944;2023-09-07T07:29:21;33.50;;;10.80;;
44440;SDS011;30146;52.268;20.944;2023-09-07T07:31:53;18.90;;;9.60;;
44440;SDS011;30146;52.268;20.944;2023-09-07T07:34:24;22.40;;;8.20;;
44440;SDS011;30146;52.268;20.944;2023-09-07T07:36:56;24.00;;;8.00;;
44440;SDS011;30146;52.268;20.944;2023-09-07T07:39:28;17.30;;;8.70;;
44440;SDS011;30146;52.268;20.944;2023-09-07T07:41:59;23.50;;;8.60;;
44440;SDS011;30146;52.268;20.944;2023-09-07T07:44:31;22.10;;;8.00;;
44440;SDS011;30146;52.268;20.944;2023-09-07T07:47:03;23.60;;;8.10;;
44440;SDS011;30146;52.268;20.944;2023-09-07T07:49:35;26.20;;;8.60;;
44440;SDS011;30146;52.268;20.944;2023-09-07T07:52:07;25.80;;;8.80;;
44440;SDS011;30146;52.268;20.944;2023-09-07T07:54:39;18.10;;;8.10;;
44440;SDS011;30146;52.268;20.944;2023-09-07T07:57:10;22.00;;;7.60;;
44440;SDS011;30146;52.268;20.944;2023-09-07T07:59:45;26.00;;;7.70;;
44440;SDS011;30146;52.268;20.944;2023-09-07T08:02:16;20.00;;;7.50;;
44440;SDS011;30146;52.268;20.944;2023-09-07T08:04:49;20.30;;;8.00;;
44440;SDS011;30146;52.268;20.944;2023-09-07T08:07:21;17.30;;;7.80;;
44440;SDS011;30146;52.268;20.944;2023-09-07T08:09:53;28.80;;;8.10;;
44440;SDS011;30146;52.268;20.944;2023-09-07T08:12:24;18.80;;;6.80;;
44440;SDS011;30146;52.268;20.944;2023-09-07T08:14:57;25.70;;;9.60;;
44440;SDS011;30146;52.268;20.944;2023-09-07T08:17:32;17.60;;;7.00;;
44440;SDS011;30146;52.268;20.944;2023-09-07T08:20:04;18.20;;;7.20;;
44440;SDS011;30146;52.268;20.944;2023-09-07T08:22:39;14.70;;;7.20;;
44440;SDS011;30146;52.268;20.944;2023-09-07T08:25:11;27.20;;;8.40;;
44440;SDS011;30146;52.268;20.944;2023-09-07T08:27:43;19.00;;;7.90;;
44440;SDS011;30146;52.268;20.944;2023-09-07T08:30:16;23.70;;;8.40;;
44440;SDS011;30146;52.268;20.944;2023-09-07T08:32:47;16.80;;;7.80;;
44440;SDS011;30146;52.268;20.944;2023-09-07T08:35:20;18.90;;;6.80;;
44440;SDS011;30146;52.268;20.944;2023-09-07T08:37:55;18.90;;;7.40;;
44440;SDS011;30146;52.268;20.944;2023-09-07T08:43:00;21.40;;;8.00;;
44440;SDS011;30146;52.268;20.944;2023-09-07T08:45:36;21.60;;;7.50;;
44440;SDS011;30146;52.268;20.944;2023-09-07T08:48:11;24.20;;;7.60;;
44440;SDS011;30146;52.268;20.944;2023-09-07T08:50:46;14.30;;;6.30;;
44440;SDS011;30146;52.268;20.944;2023-09-07T08:53:20;26.50;;;6.90;;
44440;SDS011;30146;52.268;20.944;2023-09-07T08:55:52;21.20;;;8.40;;
44440;SDS011;30146;52.268;20.944;2023-09-07T08:58:23;15.10;;;5.90;;
44440;SDS011;30146;52.268;20.944;2023-09-07T09:00:54;12.40;;;7.30;;
44440;SDS011;30146;52.268;20.944;2023-09-07T09:03:34;14.50;;;6.40;;
44440;SDS011;30146;52.268;20.944;2023-09-07T09:06:06;20.40;;;6.10;;
44440;SDS011;30146;52.268;20.944;2023-09-07T09:08:44;18.80;;;6.90;;
44440;SDS011;30146;52.268;20.944;2023-09-07T09:11:18;18.50;;;7.40;;
44440;SDS011;30146;52.268;20.944;2023-09-07T09:13:51;25.40;;;6.80;;
44440;SDS011;30146;52.268;20.944;2023-09-07T09:16:23;16.90;;;6.10;;
44440;SDS011;30146;52.268;20.944;2023-09-07T09:18:55;12.50;;;5.50;;
44440;SDS011;30146;52.268;20.944;2023-09-07T09:21:26;18.50;;;5.60;;
44440;SDS011;30146;52.268;20.944;2023-09-07T09:23:57;17.30;;;5.00;;
44440;SDS011;30146;52.268;20.944;2023-09-07T09:26:28;16.10;;;5.20;;
44440;SDS011;30146;52.268;20.944;2023-09-07T09:29:02;12.20;;;4.10;;
44440;SDS011;30146;52.268;20.944;2023-09-07T09:31:33;7.70;;;4.60;;
44440;SDS011;30146;52.268;20.944;2023-09-07T09:34:05;15.10;;;5.00;;
44440;SDS011;30146;52.268;20.944;2023-09-07T09:36:37;13.20;;;5.30;;
44440;SDS011;30146;52.268;20.944;2023-09-07T09:39:20;13.30;;;4.50;;
44440;SDS011;30146;52.268;20.944;2023-09-07T09:41:53;15.10;;;5.20;;
44440;SDS011;30146;52.268;20.944;2023-09-07T09:44:24;16.40;;;4.90;;
44440;SDS011;30146;52.268;20.944;2023-09-07T09:46:58;7.10;;;4.10;;
44440;SDS011;30146;52.268;20.944;2023-09-07T09:49:30;10.00;;;3.80;;
44440;SDS011;30146;52.268;20.944;2023-09-07T09:52:03;14.40;;;4.70;;
44440;SDS011;30146;52.268;20.944;2023-09-07T09:54:36;7.70;;;4.30;;
44440;SDS011;30146;52.268;20.944;2023-09-07T09:57:08;9.80;;;4.60;;
44440;SDS011;30146;52.268;20.944;2023-09-07T09:59:39;6.40;;;4.20;;
44440;SDS011;30146;52.268;20.944;2023-09-07T10:02:13;12.50;;;4.30;;
44440;SDS011;30146;52.268;20.944;2023-09-07T10:04:44;8.60;;;4.10;;
44440;SDS011;30146;52.268;20.944;2023-09-07T10:07:28;12.50;;;4.00;;
44440;SDS011;30146;52.268;20.944;2023-09-07T10:10:11;10.70;;;4.40;;
44440;SDS011;30146;52.268;20.944;2023-09-07T10:12:44;23.20;;;4.30;;
44440;SDS011;30146;52.268;20.944;2023-09-07T10:15:22;10.10;;;4.40;;
44440;SDS011;30146;52.268;20.944;2023-09-07T10:18:05;11.70;;;4.90;;
44440;SDS011;30146;52.268;20.944;2023-09-07T10:20:48;12.90;;;4.50;;
44440;SDS011;30146;52.268;20.944;2023-09-07T10:23:22;9.70;;;3.70;;
44440;SDS011;30146;52.268;20.944;2023-09-07T10:26:05;10.50;;;4.30;;
44440;SDS011;30146;52.268;20.944;2023-09-07T10:28:40;10.80;;;4.30;;
44440;SDS011;30146;52.268;20.944;2023-09-07T10:31:14;8.70;;;3.70;;
44440;SDS011;30146;52.268;20.944;2023-09-07T10:33:46;10.90;;;3.60;;
44440;SDS011;30146;52.268;20.944;2023-09-07T10:36:21;8.90;;;4.00;;
44440;SDS011;30146;52.268;20.944;2023-09-07T10:38:55;7.60;;;4.30;;
44440;SDS011;30146;52.268;20.944;2023-09-07T10:41:26;12.40;;;3.60;;
44440;SDS011;30146;52.268;20.944;2023-09-07T10:43:57;10.70;;;3.70;;
44440;SDS011;30146;52.268;20.944;2023-09-07T10:46:28;7.80;;;3.80;;
44440;SDS011;30146;52.268;20.944;2023-09-07T10:49:00;11.50;;;4.20;;
44440;SDS011;30146;52.268;20.944;2023-09-07T10:51:31;7.50;;;3.70;;
44440;SDS011;30146;52.268;20.944;2023-09-07T10:54:06;7.80;;;3.40;;
44440;SDS011;30146;52.268;20.944;2023-09-07T10:56:45;4.70;;;3.40;;
44440;SDS011;30146;52.268;20.944;2023-09-07T10:59:18;5.70;;;3.40;;
44440;SDS011;30146;52.268;20.944;2023-09-07T11:01:49;7.70;;;3.50;;
44440;SDS011;30146;52.268;20.944;2023-09-07T11:04:21;11.40;;;3.70;;
44440;SDS011;30146;52.268;20.944;2023-09-07T11:06:52;10.20;;;4.40;;
44440;SDS011;30146;52.268;20.944;2023-09-07T11:09:23;7.10;;;3.40;;
44440;SDS011;30146;52.268;20.944;2023-09-07T11:11:54;8.80;;;3.80;;
44440;SDS011;30146;52.268;20.944;2023-09-07T11:14:30;14.00;;;3.50;;
44440;SDS011;30146;52.268;20.944;2023-09-07T11:17:01;5.60;;;3.10;;
44440;SDS011;30146;52.268;20.944;2023-09-07T11:19:33;10.00;;;3.10;;
44440;SDS011;30146;52.268;20.944;2023-09-07T11:22:08;5.10;;;3.70;;
44440;SDS011;30146;52.268;20.944;2023-09-07T11:24:40;8.00;;;3.90;;
44440;SDS011;30146;52.268;20.944;2023-09-07T11:27:12;8.00;;;3.60;;
44440;SDS011;30146;52.268;20.944;2023-09-07T11:29:51;13.30;;;3.80;;
44440;SDS011;30146;52.268;20.944;2023-09-07T11:32:23;6.10;;;3.80;;
44440;SDS011;30146;52.268;20.944;2023-09-07T11:35:03;5.70;;;3.40;;
44440;SDS011;30146;52.268;20.944;2023-09-07T11:37:36;9.30;;;3.40;;
44440;SDS011;30146;52.268;20.944;2023-09-07T11:40:09;5.50;;;3.10;;
44440;SDS011;30146;52.268;20.944;2023-09-07T11:42:41;6.30;;;3.40;;
44440;SDS011;30146;52.268;20.944;2023-09-07T11:45:12;8.00;;;3.70;;
44440;SDS011;30146;52.268;20.944;2023-09-07T11:47:44;10.20;;;3.40;;
44440;SDS011;30146;52.268;20.944;2023-09-07T11:50:16;4.60;;;3.50;;
44440;SDS011;30146;52.268;20.944;2023-09-07T11:52:48;6.00;;;3.30;;
44440;SDS011;30146;52.268;20.944;2023-09-07T11:55:19;7.90;;;3.90;;
44440;SDS011;30146;52.268;20.944;2023-09-07T11:57:51;4.90;;;3.10;;
44440;SDS011;30146;52.268;20.944;2023-09-07T12:00:22;5.00;;;3.40;;
44440;SDS011;30146;52.268;20.944;2023-09-07T12:02:53;3.70;;;2.80;;
44440;SDS011;30146;52.268;20.944;2023-09-07T12:05:25;7.30;;;3.10;;
44440;SDS011;30146;52.268;20.944;2023-09-07T12:07:57;4.40;;;3.00;;
44440;SDS011;30146;52.268;20.944;2023-09-07T12:10:31;7.30;;;3.10;;
44440;SDS011;30146;52.268;20.944;2023-09-07T12:13:02;3.70;;;2.50;;
44440;SDS011;30146;52.268;20.944;2023-09-07T12:15:33;6.70;;;2.90;;
44440;SDS011;30146;52.268;20.944;2023-09-07T12:18:06;4.30;;;2.90;;
44440;SDS011;30146;52.268;20.944;2023-09-07T12:20:37;4.40;;;2.90;;
44440;SDS011;30146;52.268;20.944;2023-09-07T12:23:08;6.80;;;3.10;;
44440;SDS011;30146;52.268;20.944;2023-09-07T12:25:39;4.50;;;3.00;;
44440;SDS011;30146;52.268;20.944;2023-09-07T12:28:10;10.60;;;3.50;;
44440;SDS011;30146;52.268;20.944;2023-09-07T12:30:41;6.30;;;3.40;;
44440;SDS011;30146;52.268;20.944;2023-09-07T12:33:12;6.70;;;3.30;;
44440;SDS011;30146;52.268;20.944;2023-09-07T12:35:44;6.70;;;2.80;;
44440;SDS011;30146;52.268;20.944;2023-09-07T12:38:15;7.10;;;3.10;;
44440;SDS011;30146;52.268;20.944;2023-09-07T12:40:49;3.70;;;2.80;;
44440;SDS011;30146;52.268;20.944;2023-09-07T12:43:20;3.70;;;2.60;;
44440;SDS011;30146;52.268;20.944;2023-09-07T12:45:54;9.50;;;3.20;;
44440;SDS011;30146;52.268;20.944;2023-09-07T12:48:25;8.50;;;3.30;;
44440;SDS011;30146;52.268;20.944;2023-09-07T12:50:56;4.90;;;3.00;;
44440;SDS011;30146;52.268;20.944;2023-09-07T12:53:27;5.60;;;3.00;;
44440;SDS011;30146;52.268;20.944;2023-09-07T12:55:59;12.20;;;3.10;;
44440;SDS011;30146;52.268;20.944;2023-09-07T12:58:31;4.70;;;2.70;;
44440;SDS011;30146;52.268;20.944;2023-09-07T13:01:02;5.10;;;2.70;;
44440;SDS011;30146;52.268;20.944;2023-09-07T13:03:34;9.10;;;3.00;;
44440;SDS011;30146;52.268;20.944;2023-09-07T13:06:05;4.80;;;2.90;;
44440;SDS011;30146;52.268;20.944;2023-09-07T13:08:36;9.30;;;3.10;;
44440;SDS011;30146;52.268;20.944;2023-09-07T13:11:08;2.70;;;2.50;;
44440;SDS011;30146;52.268;20.944;2023-09-07T13:13:39;7.40;;;2.80;;
44440;SDS011;30146;52.268;20.944;2023-09-07T13:16:10;6.30;;;3.20;;
44440;SDS011;30146;52.268;20.944;2023-09-07T13:18:41;8.40;;;2.40;;
44440;SDS011;30146;52.268;20.944;2023-09-07T13:21:13;5.40;;;2.80;;
44440;SDS011;30146;52.268;20.944;2023-09-07T13:23:44;4.80;;;3.50;;
44440;SDS011;30146;52.268;20.944;2023-09-07T13:26:15;5.20;;;3.20;;
44440;SDS011;30146;52.268;20.944;2023-09-07T13:28:46;4.60;;;3.50;;
44440;SDS011;30146;52.268;20.944;2023-09-07T13:31:17;3.10;;;2.60;;
44440;SDS011;30146;52.268;20.944;2023-09-07T13:33:48;3.70;;;2.60;;
44440;SDS011;30146;52.268;20.944;2023-09-07T13:36:20;8.20;;;3.00;;
44440;SDS011;30146;52.268;20.944;2023-09-07T13:38:51;5.70;;;2.90;;
44440;SDS011;30146;52.268;20.944;2023-09-07T13:41:25;5.80;;;2.80;;
44440;SDS011;30146;52.268;20.944;2023-09-07T13:43:56;4.10;;;2.40;;
44440;SDS011;30146;52.268;20.944;2023-09-07T13:46:27;4.60;;;2.70;;
44440;SDS011;30146;52.268;20.944;2023-09-07T13:48:58;3.20;;;2.30;;
44440;SDS011;30146;52.268;20.944;2023-09-07T13:51:30;5.70;;;3.40;;
44440;SDS011;30146;52.268;20.944;2023-09-07T13:54:06;11.70;;;3.00;;
44440;SDS011;30146;52.268;20.944;2023-09-07T13:56:38;5.50;;;2.60;;
44440;SDS011;30146;52.268;20.944;2023-09-07T13:59:12;6.00;;;2.90;;
44440;SDS011;30146;52.268;20.944;2023-09-07T14:01:43;11.00;;;3.50;;
44440;SDS011;30146;52.268;20.944;2023-09-07T14:04:15;7.70;;;3.00;;
44440;SDS011;30146;52.268;20.944;2023-09-07T14:06:46;6.70;;;3.20;;
44440;SDS011;30146;52.268;20.944;2023-09-07T14:09:17;6.80;;;3.10;;
44440;SDS011;30146;52.268;20.944;2023-09-07T14:11:51;3.70;;;2.90;;
44440;SDS011;30146;52.268;20.944;2023-09-07T14:14:22;3.70;;;2.60;;
44440;SDS011;30146;52.268;20.944;2023-09-07T14:16:53;7.00;;;3.20;;
44440;SDS011;30146;52.268;20.944;2023-09-07T14:19:26;3.90;;;2.90;;
44440;SDS011;30146;52.268;20.944;2023-09-07T14:21:59;9.10;;;3.20;;
44440;SDS011;30146;52.268;20.944;2023-09-07T14:24:30;6.90;;;3.10;;
44440;SDS011;30146;52.268;20.944;2023-09-07T14:27:02;7.90;;;2.70;;
44440;SDS011;30146;52.268;20.944;2023-09-07T14:29:33;4.70;;;2.90;;
44440;SDS011;30146;52.268;20.944;2023-09-07T14:32:04;5.50;;;3.00;;
44440;SDS011;30146;52.268;20.944;2023-09-07T14:34:35;3.20;;;2.50;;
44440;SDS011;30146;52.268;20.944;2023-09-07T14:37:07;6.80;;;2.50;;
44440;SDS011;30146;52.268;20.944;2023-09-07T14:39:38;5.60;;;3.00;;
44440;SDS011;30146;52.268;20.944;2023-09-07T14:42:15;12.20;;;3.30;;
44440;SDS011;30146;52.268;20.944;2023-09-07T14:44:48;7.90;;;3.60;;
44440;SDS011;30146;52.268;20.944;2023-09-07T14:47:19;5.50;;;2.60;;
44440;SDS011;30146;52.268;20.944;2023-09-07T14:49:54;9.30;;;2.90;;
44440;SDS011;30146;52.268;20.944;2023-09-07T14:52:25;15.50;;;3.10;;
44440;SDS011;30146;52.268;20.944;2023-09-07T14:54:56;5.70;;;2.60;;
44440;SDS011;30146;52.268;20.944;2023-09-07T14:57:30;9.50;;;3.00;;